sensor_id;sensor_type;location;lat;lon;timestamp;pressure;altitude;pressure_sealevel;temperature;humidity
44697;BME280;57264;47.480;19.354;2024-01-07T00:01:59;97621.53;;;4.87;94.63
44697;BME280;57264;47.480;19.354;2024-01-07T00:04:24;97627.53;;;4.88;95.33
44697;BME280;57264;47.480;19.354;2024-01-07T00:06:50;97626.56;;;4.90;94.81
44697;BME280;57264;47.480;19.354;2024-01-07T00:09:16;97635.25;;;4.88;94.67
44697;BME280;57264;47.480;19.354;2024-01-07T00:11:42;97639.56;;;4.87;95.12
44697;BME280;57264;47.480;19.354;2024-01-07T00:14:07;97624.84;;;4.91;94.96
44697;BME280;57264;47.480;19.354;2024-01-07T00:16:33;97617.97;;;4.91;94.74
44697;BME280;57264;47.480;19.354;2024-01-07T00:18:59;97623.97;;;4.90;94.98
44697;BME280;57264;47.480;19.354;2024-01-07T00:21:25;97625.72;;;4.90;94.49
44697;BME280;57264;47.480;19.354;2024-01-07T00:23:51;97624.03;;;4.89;94.81
44697;BME280;57264;47.480;19.354;2024-01-07T00:26:16;97618.91;;;4.89;95.15
44697;BME280;57264;47.480;19.354;2024-01-07T00:28:42;97615.38;;;4.91;94.63
44697;BME280;57264;47.480;19.354;2024-01-07T00:31:07;97622.28;;;4.91;94.98
44697;BME280;57264;47.480;19.354;2024-01-07T00:33:34;97617.81;;;4.94;95.29
44697;BME280;57264;47.480;19.354;2024-01-07T00:36:01;97615.22;;;4.96;95.13
44697;BME280;57264;47.480;19.354;2024-01-07T00:38:27;97613.53;;;4.95;94.67
44697;BME280;57264;47.480;19.354;2024-01-07T00:40:52;97618.81;;;4.90;94.95
44697;BME280;57264;47.480;19.354;2024-01-07T00:43:18;97617.06;;;4.92;94.77
44697;BME280;57264;47.480;19.354;2024-01-07T00:45:44;97616.25;;;4.90;95.04
44697;BME280;57264;47.480;19.354;2024-01-07T00:48:09;97630.66;;;4.96;94.96
44697;BME280;57264;47.480;19.354;2024-01-07T00:50:35;97628.06;;;4.96;94.69
44697;BME280;57264;47.480;19.354;2024-01-07T00:53:00;97632.44;;;4.94;95.17
44697;BME280;57264;47.480;19.354;2024-01-07T00:55:26;97636.75;;;4.93;95.17
44697;BME280;57264;47.480;19.354;2024-01-07T00:57:51;97637.53;;;4.96;94.71
44697;BME280;57264;47.480;19.354;2024-01-07T01:00:17;97637.53;;;4.96;94.92
44697;BME280;57264;47.480;19.354;2024-01-07T01:02:43;97628.84;;;4.98;95.05
44697;BME280;57264;47.480;19.354;2024-01-07T01:05:08;97627.25;;;4.96;94.62
44697;BME280;57264;47.480;19.354;2024-01-07T01:07:34;97628.84;;;4.98;94.69
44697;BME280;57264;47.480;19.354;2024-01-07T01:09:59;97627.19;;;4.97;94.94
44697;BME280;57264;47.480;19.354;2024-01-07T01:12:25;97625.41;;;4.99;94.71
44697;BME280;57264;47.480;19.354;2024-01-07T01:14:50;97627.09;;;4.99;95.26
44697;BME280;57264;47.480;19.354;2024-01-07T01:17:16;97621.13;;;4.98;94.72
44697;BME280;57264;47.480;19.354;2024-01-07T01:19:41;97615.94;;;5.00;95.22
44697;BME280;57264;47.480;19.354;2024-01-07T01:22:07;97615.03;;;5.01;95.27
44697;BME280;57264;47.480;19.354;2024-01-07T01:24:32;97611.56;;;5.02;94.75
44697;BME280;57264;47.480;19.354;2024-01-07T01:26:57;97620.13;;;5.02;94.99
44697;BME280;57264;47.480;19.354;2024-01-07T01:29:23;97611.53;;;5.03;95.35
44697;BME280;57264;47.480;19.354;2024-01-07T01:31:49;97617.53;;;5.02;95.00
44697;BME280;57264;47.480;19.354;2024-01-07T01:34:15;97607.31;;;5.01;95.11
44697;BME280;57264;47.480;19.354;2024-01-07T01:36:40;97612.34;;;5.04;94.99
44697;BME280;57264;47.480;19.354;2024-01-07T01:39:06;97616.66;;;5.03;95.28
44697;BME280;57264;47.480;19.354;2024-01-07T01:41:32;97605.41;;;5.06;94.93
44697;BME280;57264;47.480;19.354;2024-01-07T01:43:58;97613.19;;;5.04;94.82
44697;BME280;57264;47.480;19.354;2024-01-07T01:46:24;97607.13;;;5.05;94.99
44697;BME280;57264;47.480;19.354;2024-01-07T01:48:50;97613.09;;;5.07;95.13
44697;BME280;57264;47.480;19.354;2024-01-07T01:51:17;97607.09;;;5.07;94.98
44697;BME280;57264;47.480;19.354;2024-01-07T01:53:42;97607.03;;;5.08;94.97
44697;BME280;57264;47.480;19.354;2024-01-07T01:56:09;97606.97;;;5.10;94.63
44697;BME280;57264;47.480;19.354;2024-01-07T01:58:34;97605.22;;;5.10;94.88
44697;BME280;57264;47.480;19.354;2024-01-07T02:01:00;97609.44;;;5.13;94.92
44697;BME280;57264;47.480;19.354;2024-01-07T02:03:26;97596.66;;;5.10;94.60
44697;BME280;57264;47.480;19.354;2024-01-07T02:05:52;97600.16;;;5.09;94.62
44697;BME280;57264;47.480;19.354;2024-01-07T02:08:19;97596.63;;;5.11;94.67
44697;BME280;57264;47.480;19.354;2024-01-07T02:10:44;97595.84;;;5.09;94.70
44697;BME280;57264;47.480;19.354;2024-01-07T02:13:10;97596.56;;;5.13;95.15
44697;BME280;57264;47.480;19.354;2024-01-07T02:15:36;97590.50;;;5.14;95.32
44697;BME280;57264;47.480;19.354;2024-01-07T02:18:01;97591.22;;;5.17;94.88
44697;BME280;57264;47.480;19.354;2024-01-07T02:20:27;97590.66;;;5.11;94.52
44697;BME280;57264;47.480;19.354;2024-01-07T02:22:53;97591.41;;;5.13;94.50
44697;BME280;57264;47.480;19.354;2024-01-07T02:25:19;97599.19;;;5.11;94.58
44697;BME280;57264;47.480;19.354;2024-01-07T02:27:44;97587.91;;;5.15;95.26
44697;BME280;57264;47.480;19.354;2024-01-07T02:30:10;97590.47;;;5.15;95.25
44697;BME280;57264;47.480;19.354;2024-01-07T02:32:35;97588.53;;;5.21;94.50
44697;BME280;57264;47.480;19.354;2024-01-07T02:35:03;97585.31;;;5.15;95.12
44697;BME280;57264;47.480;19.354;2024-01-07T02:37:29;97577.72;;;5.12;94.62
44697;BME280;57264;47.480;19.354;2024-01-07T02:39:54;97580.81;;;5.21;94.79
44697;BME280;57264;47.480;19.354;2024-01-07T02:42:20;97573.28;;;5.16;94.70
44697;BME280;57264;47.480;19.354;2024-01-07T02:44:45;97580.94;;;5.17;94.72
44697;BME280;57264;47.480;19.354;2024-01-07T02:47:11;97566.47;;;5.15;94.93
44697;BME280;57264;47.480;19.354;2024-01-07T02:49:36;97566.28;;;5.20;95.10
44697;BME280;57264;47.480;19.354;2024-01-07T02:52:02;97573.22;;;5.17;94.71
44697;BME280;57264;47.480;19.354;2024-01-07T02:54:27;97569.03;;;5.15;94.98
44697;BME280;57264;47.480;19.354;2024-01-07T02:56:53;97565.56;;;5.16;95.18
44697;BME280;57264;47.480;19.354;2024-01-07T02:59:19;97562.91;;;5.17;94.93
44697;BME280;57264;47.480;19.354;2024-01-07T03:01:44;97559.41;;;5.20;95.03
44697;BME280;57264;47.480;19.354;2024-01-07T03:04:12;97566.28;;;5.20;95.11
44697;BME280;57264;47.480;19.354;2024-01-07T03:06:37;97556.09;;;5.16;94.94
44697;BME280;57264;47.480;19.354;2024-01-07T03:09:03;97553.47;;;5.18;95.13
44697;BME280;57264;47.480;19.354;2024-01-07T03:11:29;97555.81;;;5.24;94.95
44697;BME280;57264;47.480;19.354;2024-01-07T03:13:55;97558.44;;;5.23;95.00
44697;BME280;57264;47.480;19.354;2024-01-07T03:16:22;97558.56;;;5.20;95.39
44697;BME280;57264;47.480;19.354;2024-01-07T03:18:48;97556.00;;;5.20;95.07
44697;BME280;57264;47.480;19.354;2024-01-07T03:21:22;97551.69;;;5.20;94.74
44697;BME280;57264;47.480;19.354;2024-01-07T03:23:49;97546.34;;;5.25;94.85
44697;BME280;57264;47.480;19.354;2024-01-07T03:26:17;97551.56;;;5.23;94.86
44697;BME280;57264;47.480;19.354;2024-01-07T03:28:42;97542.03;;;5.25;95.15
44697;BME280;57264;47.480;19.354;2024-01-07T03:31:10;97550.53;;;5.27;95.13
44697;BME280;57264;47.480;19.354;2024-01-07T03:33:39;97556.53;;;5.28;94.49
44697;BME280;57264;47.480;19.354;2024-01-07T03:36:12;97547.00;;;5.30;94.94
44697;BME280;57264;47.480;19.354;2024-01-07T03:38:39;97547.00;;;5.30;94.76
44697;BME280;57264;47.480;19.354;2024-01-07T03:41:05;97552.09;;;5.31;95.03
44697;BME280;57264;47.480;19.354;2024-01-07T03:43:32;97541.72;;;5.33;95.37
44697;BME280;57264;47.480;19.354;2024-01-07T03:45:58;97541.66;;;5.34;94.62
44697;BME280;57264;47.480;19.354;2024-01-07T03:48:23;97540.59;;;5.40;94.94
44697;BME280;57264;47.480;19.354;2024-01-07T03:50:49;97538.97;;;5.37;95.20
44697;BME280;57264;47.480;19.354;2024-01-07T03:53:15;97544.94;;;5.38;94.66
44697;BME280;57264;47.480;19.354;2024-01-07T03:55:41;97547.53;;;5.38;94.42
44697;BME280;57264;47.480;19.354;2024-01-07T03:58:07;97556.09;;;5.38;94.58
44697;BME280;57264;47.480;19.354;2024-01-07T04:00:33;97543.06;;;5.43;95.20
44697;BME280;57264;47.480;19.354;2024-01-07T04:02:59;97547.28;;;5.44;94.86
44697;BME280;57264;47.480;19.354;2024-01-07T04:05:24;97545.38;;;5.49;94.67
44697;BME280;57264;47.480;19.354;2024-01-07T04:07:50;97551.44;;;5.48;94.65
44697;BME280;57264;47.480;19.354;2024-01-07T04:10:19;97541.13;;;5.48;94.93
44697;BME280;57264;47.480;19.354;2024-01-07T04:12:44;97545.31;;;5.51;94.71
44697;BME280;57264;47.480;19.354;2024-01-07T04:15:13;97547.81;;;5.52;94.83
44697;BME280;57264;47.480;19.354;2024-01-07T04:17:39;97551.31;;;5.51;94.47
44697;BME280;57264;47.480;19.354;2024-01-07T04:20:05;97547.91;;;5.51;94.81
44697;BME280;57264;47.480;19.354;2024-01-07T04:22:31;97547.94;;;5.49;94.65
44697;BME280;57264;47.480;19.354;2024-01-07T04:24:56;97544.47;;;5.50;94.85
44697;BME280;57264;47.480;19.354;2024-01-07T04:27:22;97552.25;;;5.49;94.43
44697;BME280;57264;47.480;19.354;2024-01-07T04:29:49;97545.44;;;5.48;94.57
44697;BME280;57264;47.480;19.354;2024-01-07T04:32:15;97553.91;;;5.50;94.47
44697;BME280;57264;47.480;19.354;2024-01-07T04:34:40;97543.59;;;5.51;95.01
44697;BME280;57264;47.480;19.354;2024-01-07T04:37:05;97552.06;;;5.53;94.99
44697;BME280;57264;47.480;19.354;2024-01-07T04:39:31;97560.59;;;5.55;94.70
44697;BME280;57264;47.480;19.354;2024-01-07T04:41:56;97551.16;;;5.54;94.77
44697;BME280;57264;47.480;19.354;2024-01-07T04:44:22;97551.94;;;5.56;95.09
44697;BME280;57264;47.480;19.354;2024-01-07T04:46:48;97552.03;;;5.55;94.37
44697;BME280;57264;47.480;19.354;2024-01-07T04:49:14;97558.06;;;5.54;94.84
44697;BME280;57264;47.480;19.354;2024-01-07T04:51:40;97555.38;;;5.57;94.52
44697;BME280;57264;47.480;19.354;2024-01-07T04:54:05;97560.41;;;5.60;94.20
44697;BME280;57264;47.480;19.354;2024-01-07T04:56:31;97559.50;;;5.61;94.44
44697;BME280;57264;47.480;19.354;2024-01-07T04:58:57;97549.25;;;5.59;94.58
44697;BME280;57264;47.480;19.354;2024-01-07T05:01:23;97561.16;;;5.62;94.17
44697;BME280;57264;47.480;19.354;2024-01-07T05:03:48;97549.97;;;5.63;94.01
44697;BME280;57264;47.480;19.354;2024-01-07T05:06:14;97556.16;;;5.59;94.43
44697;BME280;57264;47.480;19.354;2024-01-07T05:08:43;97557.75;;;5.61;94.25
44697;BME280;57264;47.480;19.354;2024-01-07T05:11:08;97557.63;;;5.64;94.31
44697;BME280;57264;47.480;19.354;2024-01-07T05:13:35;97561.13;;;5.63;94.75
44697;BME280;57264;47.480;19.354;2024-01-07T05:16:01;97553.38;;;5.63;94.01
44697;BME280;57264;47.480;19.354;2024-01-07T05:18:26;97552.56;;;5.63;94.13
44697;BME280;57264;47.480;19.354;2024-01-07T05:20:52;97554.97;;;5.66;94.81
44697;BME280;57264;47.480;19.354;2024-01-07T05:23:18;97548.94;;;5.67;94.74
44697;BME280;57264;47.480;19.354;2024-01-07T05:25:43;97547.97;;;5.70;94.04
44697;BME280;57264;47.480;19.354;2024-01-07T05:28:10;97551.44;;;5.68;94.41
44697;BME280;57264;47.480;19.354;2024-01-07T05:30:35;97555.56;;;5.73;94.46
44697;BME280;57264;47.480;19.354;2024-01-07T05:33:01;97556.41;;;5.73;93.75
44697;BME280;57264;47.480;19.354;2024-01-07T05:35:26;97561.56;;;5.73;94.41
44697;BME280;57264;47.480;19.354;2024-01-07T05:37:52;97549.50;;;5.74;93.95
44697;BME280;57264;47.480;19.354;2024-01-07T05:40:17;97549.50;;;5.74;93.73
44697;BME280;57264;47.480;19.354;2024-01-07T05:42:43;97553.72;;;5.76;93.64
44697;BME280;57264;47.480;19.354;2024-01-07T05:45:08;97550.91;;;5.82;93.65
44697;BME280;57264;47.480;19.354;2024-01-07T05:47:34;97551.97;;;5.77;93.76
44697;BME280;57264;47.480;19.354;2024-01-07T05:49:59;97556.28;;;5.76;94.32
44697;BME280;57264;47.480;19.354;2024-01-07T05:52:25;97548.44;;;5.79;93.91
44697;BME280;57264;47.480;19.354;2024-01-07T05:54:50;97556.41;;;5.73;94.19
44697;BME280;57264;47.480;19.354;2024-01-07T05:57:16;97546.69;;;5.80;93.62
44697;BME280;57264;47.480;19.354;2024-01-07T05:59:43;97551.72;;;5.83;94.06
44697;BME280;57264;47.480;19.354;2024-01-07T06:02:09;97556.09;;;5.81;93.36
44697;BME280;57264;47.480;19.354;2024-01-07T06:04:34;97558.78;;;5.78;94.04
44697;BME280;57264;47.480;19.354;2024-01-07T06:07:02;97561.38;;;5.78;93.90
44697;BME280;57264;47.480;19.354;2024-01-07T06:09:28;97562.16;;;5.80;93.34
44697;BME280;57264;47.480;19.354;2024-01-07T06:11:53;97559.78;;;5.75;93.58
44697;BME280;57264;47.480;19.354;2024-01-07T06:14:19;97557.75;;;5.82;94.05
44697;BME280;57264;47.480;19.354;2024-01-07T06:16:44;97559.66;;;5.78;93.93
44697;BME280;57264;47.480;19.354;2024-01-07T06:19:10;97564.84;;;5.77;93.92
44697;BME280;57264;47.480;19.354;2024-01-07T06:21:35;97556.88;;;5.83;94.15
44697;BME280;57264;47.480;19.354;2024-01-07T06:24:01;97568.16;;;5.80;93.71
44697;BME280;57264;47.480;19.354;2024-01-07T06:26:26;97559.47;;;5.83;94.07
44697;BME280;57264;47.480;19.354;2024-01-07T06:28:52;97560.34;;;5.82;93.64
44697;BME280;57264;47.480;19.354;2024-01-07T06:31:17;97563.81;;;5.81;93.37
44697;BME280;57264;47.480;19.354;2024-01-07T06:33:43;97563.94;;;5.78;94.19
44697;BME280;57264;47.480;19.354;2024-01-07T06:36:08;97559.50;;;5.81;93.58
44697;BME280;57264;47.480;19.354;2024-01-07T06:38:34;97565.66;;;5.79;94.19
44697;BME280;57264;47.480;19.354;2024-01-07T06:40:59;97567.38;;;5.78;94.07
44697;BME280;57264;47.480;19.354;2024-01-07T06:43:29;97568.16;;;5.80;93.81
44697;BME280;57264;47.480;19.354;2024-01-07T06:45:55;97571.50;;;5.82;93.97
44697;BME280;57264;47.480;19.354;2024-01-07T06:48:20;97570.59;;;5.83;94.01
44697;BME280;57264;47.480;19.354;2024-01-07T06:50:46;97572.34;;;5.83;94.15
44697;BME280;57264;47.480;19.354;2024-01-07T06:53:11;97580.38;;;5.75;93.77
44697;BME280;57264;47.480;19.354;2024-01-07T06:55:37;97574.13;;;5.81;93.81
44697;BME280;57264;47.480;19.354;2024-01-07T06:58:02;97573.19;;;5.83;93.63
44697;BME280;57264;47.480;19.354;2024-01-07T07:00:28;97576.66;;;5.82;93.30
44697;BME280;57264;47.480;19.354;2024-01-07T07:02:53;97576.91;;;5.76;93.69
44697;BME280;57264;47.480;19.354;2024-01-07T07:05:19;97570.09;;;5.75;93.88
44697;BME280;57264;47.480;19.354;2024-01-07T07:07:44;97576.78;;;5.79;93.93
44697;BME280;57264;47.480;19.354;2024-01-07T07:10:10;97576.72;;;5.81;93.74
44697;BME280;57264;47.480;19.354;2024-01-07T07:12:36;97571.63;;;5.79;93.74
44697;BME280;57264;47.480;19.354;2024-01-07T07:15:02;97570.81;;;5.79;93.97
44697;BME280;57264;47.480;19.354;2024-01-07T07:17:27;97582.69;;;5.81;93.68
44697;BME280;57264;47.480;19.354;2024-01-07T07:19:52;97580.97;;;5.82;93.95
44697;BME280;57264;47.480;19.354;2024-01-07T07:22:18;97583.53;;;5.82;93.75
44697;BME280;57264;47.480;19.354;2024-01-07T07:24:44;97573.78;;;5.90;93.74
44697;BME280;57264;47.480;19.354;2024-01-07T07:27:09;97575.75;;;5.83;93.59
44697;BME280;57264;47.480;19.354;2024-01-07T07:29:35;97580.00;;;5.84;93.73
44697;BME280;57264;47.480;19.354;2024-01-07T07:32:00;97580.78;;;5.86;93.53
44697;BME280;57264;47.480;19.354;2024-01-07T07:34:26;97583.50;;;5.83;93.98
44697;BME280;57264;47.480;19.354;2024-01-07T07:36:51;97592.81;;;5.86;93.45
44697;BME280;57264;47.480;19.354;2024-01-07T07:39:17;97578.06;;;5.89;93.80
44697;BME280;57264;47.480;19.354;2024-01-07T07:41:42;97589.38;;;5.87;93.58
44697;BME280;57264;47.480;19.354;2024-01-07T07:44:08;97582.50;;;5.86;93.91
44697;BME280;57264;47.480;19.354;2024-01-07T07:46:33;97587.50;;;5.90;93.61
44697;BME280;57264;47.480;19.354;2024-01-07T07:48:59;97591.50;;;5.98;93.23
44697;BME280;57264;47.480;19.354;2024-01-07T07:51:26;97589.84;;;5.97;93.59
44697;BME280;57264;47.480;19.354;2024-01-07T07:53:51;97596.72;;;5.96;93.20
44697;BME280;57264;47.480;19.354;2024-01-07T07:56:17;97594.28;;;5.93;93.65
44697;BME280;57264;47.480;19.354;2024-01-07T07:58:42;97593.06;;;6.02;93.04
44697;BME280;57264;47.480;19.354;2024-01-07T08:01:08;97597.34;;;6.03;93.86
44697;BME280;57264;47.480;19.354;2024-01-07T08:03:33;97605.81;;;6.05;93.58
44697;BME280;57264;47.480;19.354;2024-01-07T08:06:00;97594.75;;;6.03;93.19
44697;BME280;57264;47.480;19.354;2024-01-07T08:08:25;97602.09;;;6.12;92.98
44697;BME280;57264;47.480;19.354;2024-01-07T08:10:51;97607.19;;;6.13;93.49
44697;BME280;57264;47.480;19.354;2024-01-07T08:13:16;97606.41;;;6.11;92.92
44697;BME280;57264;47.480;19.354;2024-01-07T08:15:42;97606.28;;;6.14;92.84
44697;BME280;57264;47.480;19.354;2024-01-07T08:18:07;97615.00;;;6.12;93.03
44697;BME280;57264;47.480;19.354;2024-01-07T08:20:33;97613.88;;;6.18;92.67
44697;BME280;57264;47.480;19.354;2024-01-07T08:22:58;97612.22;;;6.16;92.99
44697;BME280;57264;47.480;19.354;2024-01-07T08:25:25;97617.16;;;6.21;92.71
44697;BME280;57264;47.480;19.354;2024-01-07T08:27:51;97611.31;;;6.18;92.63
44697;BME280;57264;47.480;19.354;2024-01-07T08:30:16;97618.09;;;6.20;92.52
44697;BME280;57264;47.480;19.354;2024-01-07T08:32:42;97625.22;;;6.13;92.57
44697;BME280;57264;47.480;19.354;2024-01-07T08:35:08;97617.50;;;6.13;92.66
44697;BME280;57264;47.480;19.354;2024-01-07T08:37:34;97624.38;;;6.13;92.24
44697;BME280;57264;47.480;19.354;2024-01-07T08:40:00;97626.78;;;6.18;92.41
44697;BME280;57264;47.480;19.354;2024-01-07T08:42:27;97627.81;;;6.13;92.23
44697;BME280;57264;47.480;19.354;2024-01-07T08:44:55;97632.00;;;6.16;93.08
44697;BME280;57264;47.480;19.354;2024-01-07T08:47:20;97639.75;;;6.16;92.80
44697;BME280;57264;47.480;19.354;2024-01-07T08:49:46;97633.81;;;6.14;93.18
44697;BME280;57264;47.480;19.354;2024-01-07T08:52:11;97639.66;;;6.18;92.90
44697;BME280;57264;47.480;19.354;2024-01-07T08:54:37;97633.56;;;6.20;92.91
44697;BME280;57264;47.480;19.354;2024-01-07T08:57:03;97637.75;;;6.23;93.51
44697;BME280;57264;47.480;19.354;2024-01-07T08:59:28;97639.41;;;6.24;92.99
44697;BME280;57264;47.480;19.354;2024-01-07T09:01:54;97643.16;;;6.16;93.13
44697;BME280;57264;47.480;19.354;2024-01-07T09:04:19;97644.81;;;6.18;93.37
44697;BME280;57264;47.480;19.354;2024-01-07T09:06:45;97655.00;;;6.21;93.38
44697;BME280;57264;47.480;19.354;2024-01-07T09:09:10;97651.78;;;6.15;93.25
44697;BME280;57264;47.480;19.354;2024-01-07T09:11:36;97650.25;;;6.11;93.38
44697;BME280;57264;47.480;19.354;2024-01-07T09:14:02;97653.84;;;6.07;93.76
44697;BME280;57264;47.480;19.354;2024-01-07T09:16:29;97652.94;;;6.08;93.63
44697;BME280;57264;47.480;19.354;2024-01-07T09:18:54;97651.06;;;6.12;93.45
44697;BME280;57264;47.480;19.354;2024-01-07T09:21:20;97649.41;;;6.11;93.74
44697;BME280;57264;47.480;19.354;2024-01-07T09:23:45;97647.75;;;6.10;93.76
44697;BME280;57264;47.480;19.354;2024-01-07T09:26:11;97652.94;;;6.08;94.07
44697;BME280;57264;47.480;19.354;2024-01-07T09:28:37;97646.63;;;6.15;93.96
44697;BME280;57264;47.480;19.354;2024-01-07T09:31:02;97654.56;;;6.11;93.54
44697;BME280;57264;47.480;19.354;2024-01-07T09:33:28;97651.72;;;6.17;94.22
44697;BME280;57264;47.480;19.354;2024-01-07T09:35:54;97645.84;;;6.13;93.73
44697;BME280;57264;47.480;19.354;2024-01-07T09:38:20;97647.59;;;6.13;93.99
44697;BME280;57264;47.480;19.354;2024-01-07T09:40:46;97643.41;;;6.10;93.72
44697;BME280;57264;47.480;19.354;2024-01-07T09:43:12;97644.25;;;6.11;93.87
44697;BME280;57264;47.480;19.354;2024-01-07T09:45:42;97645.94;;;6.12;93.89
44697;BME280;57264;47.480;19.354;2024-01-07T09:48:11;97648.44;;;6.13;93.74
44697;BME280;57264;47.480;19.354;2024-01-07T09:50:36;97644.78;;;6.19;94.17
44697;BME280;57264;47.480;19.354;2024-01-07T09:53:03;97640.03;;;6.30;93.70
44697;BME280;57264;47.480;19.354;2024-01-07T09:55:56;97645.59;;;6.20;93.72
44697;BME280;57264;47.480;19.354;2024-01-07T09:58:26;97641.38;;;6.19;93.81
44697;BME280;57264;47.480;19.354;2024-01-07T10:00:52;97634.66;;;6.14;93.51
44697;BME280;57264;47.480;19.354;2024-01-07T10:03:17;97635.88;;;6.26;93.63
44697;BME280;57264;47.480;19.354;2024-01-07T10:05:43;97635.94;;;6.25;93.29
44697;BME280;57264;47.480;19.354;2024-01-07T10:08:09;97643.88;;;6.20;93.47
44697;BME280;57264;47.480;19.354;2024-01-07T10:10:35;97638.00;;;6.16;93.85
44697;BME280;57264;47.480;19.354;2024-01-07T10:13:01;97630.38;;;6.13;93.61
44697;BME280;57264;47.480;19.354;2024-01-07T10:15:27;97634.78;;;6.11;93.80
44697;BME280;57264;47.480;19.354;2024-01-07T10:18:03;97638.97;;;6.14;93.58
44697;BME280;57264;47.480;19.354;2024-01-07T10:20:29;97640.06;;;6.08;93.90
44697;BME280;57264;47.480;19.354;2024-01-07T10:22:56;97640.16;;;6.05;93.39
44697;BME280;57264;47.480;19.354;2024-01-07T10:25:22;97638.88;;;5.95;93.84
44697;BME280;57264;47.480;19.354;2024-01-07T10:27:48;97628.25;;;6.03;94.02
44697;BME280;57264;47.480;19.354;2024-01-07T10:30:15;97624.06;;;6.00;93.48
44697;BME280;57264;47.480;19.354;2024-01-07T10:32:46;97633.53;;;6.00;93.91
44697;BME280;57264;47.480;19.354;2024-01-07T10:35:13;97626.63;;;6.00;93.51
44697;BME280;57264;47.480;19.354;2024-01-07T10:37:42;97629.81;;;6.07;93.54
44697;BME280;57264;47.480;19.354;2024-01-07T10:40:11;97621.47;;;6.00;93.12
44697;BME280;57264;47.480;19.354;2024-01-07T10:42:38;97619.09;;;5.96;93.55
44697;BME280;57264;47.480;19.354;2024-01-07T10:45:04;97618.06;;;6.00;93.66
44697;BME280;57264;47.480;19.354;2024-01-07T10:47:31;97620.47;;;6.04;93.72
44697;BME280;57264;47.480;19.354;2024-01-07T10:49:58;97617.03;;;6.04;93.57
44697;BME280;57264;47.480;19.354;2024-01-07T10:52:26;97617.25;;;5.99;93.62
44697;BME280;57264;47.480;19.354;2024-01-07T10:54:53;97613.97;;;6.16;93.47
44697;BME280;57264;47.480;19.354;2024-01-07T11:00:14;97613.69;;;6.02;93.47
44697;BME280;57264;47.480;19.354;2024-01-07T11:03:07;97613.63;;;6.03;93.38
44697;BME280;57264;47.480;19.354;2024-01-07T11:05:50;97601.22;;;5.91;93.51
44697;BME280;57264;47.480;19.354;2024-01-07T11:10:53;97602.06;;;5.91;93.63
44697;BME280;57264;47.480;19.354;2024-01-07T11:13:38;97605.59;;;5.89;93.77
44697;BME280;57264;47.480;19.354;2024-01-07T11:16:07;97603.00;;;5.89;93.48
44697;BME280;57264;47.480;19.354;2024-01-07T11:18:46;97605.84;;;5.83;93.22
44697;BME280;57264;47.480;19.354;2024-01-07T11:21:21;97609.06;;;5.88;93.43
44697;BME280;57264;47.480;19.354;2024-01-07T11:23:50;97608.44;;;5.83;93.24
44697;BME280;57264;47.480;19.354;2024-01-07T11:26:19;97601.53;;;5.83;92.96
44697;BME280;57264;47.480;19.354;2024-01-07T11:28:58;97602.16;;;5.88;93.49
44697;BME280;57264;47.480;19.354;2024-01-07T11:31:45;97603.47;;;5.78;93.04
44697;BME280;57264;47.480;19.354;2024-01-07T11:34:53;97605.31;;;5.75;93.29
44697;BME280;57264;47.480;19.354;2024-01-07T11:37:19;97600.03;;;5.78;93.22
44697;BME280;57264;47.480;19.354;2024-01-07T11:39:47;97601.84;;;5.76;93.11
44697;BME280;57264;47.480;19.354;2024-01-07T11:42:13;97606.91;;;5.77;93.31
44697;BME280;57264;47.480;19.354;2024-01-07T11:47:12;97596.09;;;5.69;93.29
44697;BME280;57264;47.480;19.354;2024-01-07T11:49:39;97599.38;;;5.73;93.15
44697;BME280;57264;47.480;19.354;2024-01-07T11:52:05;97590.88;;;5.71;93.60
44697;BME280;57264;47.480;19.354;2024-01-07T11:54:31;97599.44;;;5.71;93.25
44697;BME280;57264;47.480;19.354;2024-01-07T11:56:57;97600.31;;;5.70;93.64
44697;BME280;57264;47.480;19.354;2024-01-07T11:59:23;97604.72;;;5.68;93.54
44697;BME280;57264;47.480;19.354;2024-01-07T12:01:49;97597.75;;;5.70;93.96
44697;BME280;57264;47.480;19.354;2024-01-07T12:04:14;97598.63;;;5.71;93.23
44697;BME280;57264;47.480;19.354;2024-01-07T12:06:40;97595.25;;;5.68;93.32
44697;BME280;57264;47.480;19.354;2024-01-07T12:09:06;97594.53;;;5.65;93.05
44697;BME280;57264;47.480;19.354;2024-01-07T12:11:32;97608.31;;;5.64;93.52
44697;BME280;57264;47.480;19.354;2024-01-07T12:13:58;97604.91;;;5.63;93.22
44697;BME280;57264;47.480;19.354;2024-01-07T12:16:25;97606.56;;;5.64;93.33
44697;BME280;57264;47.480;19.354;2024-01-07T12:18:51;97608.31;;;5.64;93.17
44697;BME280;57264;47.480;19.354;2024-01-07T12:21:19;97604.13;;;5.61;93.42
44697;BME280;57264;47.480;19.354;2024-01-07T12:23:48;97607.97;;;5.51;92.71
44697;BME280;57264;47.480;19.354;2024-01-07T12:26:16;97608.81;;;5.52;92.94
44697;BME280;57264;47.480;19.354;2024-01-07T12:28:42;97601.41;;;5.64;93.03
44697;BME280;57264;47.480;19.354;2024-01-07T12:31:09;97600.06;;;5.56;93.15
44697;BME280;57264;47.480;19.354;2024-01-07T12:33:37;97606.75;;;5.60;92.73
44697;BME280;57264;47.480;19.354;2024-01-07T12:36:03;97609.34;;;5.60;92.78
44697;BME280;57264;47.480;19.354;2024-01-07T12:38:29;97600.09;;;5.54;92.57
44697;BME280;57264;47.480;19.354;2024-01-07T12:40:55;97605.38;;;5.51;92.86
44697;BME280;57264;47.480;19.354;2024-01-07T12:43:21;97612.00;;;5.58;92.57
44697;BME280;57264;47.480;19.354;2024-01-07T12:45:50;97619.03;;;5.53;92.35
44697;BME280;57264;47.480;19.354;2024-01-07T12:48:15;97614.97;;;5.48;92.44
44697;BME280;57264;47.480;19.354;2024-01-07T12:50:41;97620.22;;;5.45;92.60
44697;BME280;57264;47.480;19.354;2024-01-07T12:53:07;97615.28;;;5.40;93.04
44697;BME280;57264;47.480;19.354;2024-01-07T12:55:33;97622.88;;;5.43;92.95
44697;BME280;57264;47.480;19.354;2024-01-07T12:57:59;97619.47;;;5.42;92.92
44697;BME280;57264;47.480;19.354;2024-01-07T13:00:25;97632.28;;;5.44;92.53
44697;BME280;57264;47.480;19.354;2024-01-07T13:02:52;97621.97;;;5.44;93.17
44697;BME280;57264;47.480;19.354;2024-01-07T13:05:17;97628.44;;;5.54;92.92